createdAt,value
2023-01-29T00:00:40.088Z,11.23
2023-01-29T00:03:29.199Z,12.23
2023-01-29T00:05:58.129Z,9.52
2023-01-29T00:08:28.698Z,9.77
2023-01-29T00:11:02.878Z,10.00
2023-01-29T00:13:32.355Z,8.20
2023-01-29T00:16:02.675Z,12.90
2023-01-29T00:18:32.987Z,9.50
2023-01-29T00:21:01.827Z,7.53
2023-01-29T00:23:32.274Z,7.80
2023-01-29T00:26:01.710Z,7.50
2023-01-29T00:28:30.881Z,9.40
2023-01-29T00:30:59.845Z,9.00
2023-01-29T00:33:30.724Z,7.87
2023-01-29T00:35:59.481Z,6.93
2023-01-29T00:38:28.570Z,9.43
2023-01-29T00:41:17.137Z,7.45
2023-01-29T00:44:03.528Z,7.65
2023-01-29T00:46:32.372Z,6.80
2023-01-29T00:49:01.590Z,8.15
2023-01-29T00:51:30.552Z,16.57
2023-01-29T00:54:02.674Z,7.43
2023-01-29T00:56:32.946Z,9.90
2023-01-29T00:59:02.480Z,10.50
2023-01-29T01:01:49.065Z,9.00
2023-01-29T01:04:18.163Z,43.30
2023-01-29T01:06:46.918Z,15.93
2023-01-29T01:09:33.354Z,9.57
2023-01-29T01:12:04.975Z,7.75
2023-01-29T01:14:36.198Z,7.63
2023-01-29T01:17:05.512Z,35.92
2023-01-29T01:19:35.698Z,7.88
2023-01-29T01:22:05.003Z,6.75
2023-01-29T01:24:34.446Z,7.37
2023-01-29T01:27:05.102Z,7.20
2023-01-29T01:29:34.369Z,8.13
2023-01-29T01:32:03.275Z,7.53
2023-01-29T01:34:32.475Z,7.87
2023-01-29T01:37:01.434Z,6.63
2023-01-29T01:39:31.071Z,7.82
2023-01-29T01:42:00.131Z,9.55
2023-01-29T01:44:59.431Z,8.23
2023-01-29T01:47:39.284Z,7.50
2023-01-29T01:50:15.583Z,7.68
2023-01-29T01:52:49.815Z,9.70
2023-01-29T01:55:24.297Z,28.85
2023-01-29T01:58:04.401Z,8.73
2023-01-29T02:00:35.459Z,8.95
2023-01-29T02:03:23.238Z,7.85
2023-01-29T02:06:14.196Z,11.90
2023-01-29T02:09:09.915Z,9.00
2023-01-29T02:11:40.042Z,9.83
2023-01-29T02:14:09.843Z,9.70
2023-01-29T02:16:40.506Z,10.70
2023-01-29T02:19:22.374Z,9.50
2023-01-29T02:22:31.074Z,9.23
2023-01-29T02:26:11.609Z,8.37
2023-01-29T02:28:54.446Z,11.13
2023-01-29T02:31:36.427Z,10.17
2023-01-29T02:34:20.681Z,8.30
2023-01-29T02:37:01.137Z,9.10
2023-01-29T02:39:37.518Z,10.48
2023-01-29T02:42:17.661Z,9.82
2023-01-29T02:44:57.399Z,10.50
2023-01-29T02:47:36.341Z,9.27
2023-01-29T02:50:16.388Z,9.02
2023-01-29T02:52:56.865Z,10.20
2023-01-29T02:55:31.851Z,9.50
2023-01-29T02:58:12.773Z,10.87
2023-01-29T03:00:48.025Z,10.03
2023-01-29T03:03:25.035Z,10.02
2023-01-29T03:06:06.363Z,10.37
2023-01-29T03:08:45.617Z,10.43
2023-01-29T03:11:18.751Z,10.33
2023-01-29T03:13:54.483Z,11.43
2023-01-29T03:16:34.408Z,10.53
2023-01-29T03:19:09.914Z,9.82
2023-01-29T03:21:51.652Z,9.83
2023-01-29T03:24:52.741Z,9.17
2023-01-29T03:27:49.730Z,10.95
2023-01-29T03:30:38.964Z,8.33
2023-01-29T03:33:27.755Z,12.43
2023-01-29T03:36:07.720Z,9.80
2023-01-29T03:38:37.171Z,10.48
2023-01-29T03:41:14.058Z,11.90
2023-01-29T03:43:55.622Z,9.80
2023-01-29T03:46:33.319Z,9.17
2023-01-29T03:49:16.631Z,9.73
2023-01-29T03:51:57.892Z,9.73
2023-01-29T03:54:40.094Z,9.20
2023-01-29T03:57:20.320Z,10.43
2023-01-29T04:00:00.437Z,9.17
2023-01-29T04:02:53.298Z,10.30
2023-01-29T04:05:32.751Z,9.20
2023-01-29T04:08:19.422Z,9.47
2023-01-29T04:10:51.274Z,9.35
2023-01-29T04:13:21.516Z,9.50
2023-01-29T04:15:57.356Z,8.60
2023-01-29T04:18:48.145Z,7.65
2023-01-29T04:21:20.383Z,9.30
2023-01-29T04:23:49.215Z,10.50
2023-01-29T04:26:42.006Z,10.13
2023-01-29T04:29:43.754Z,9.43
2023-01-29T04:32:25.964Z,9.93
2023-01-29T04:35:07.838Z,9.87
2023-01-29T04:37:51.233Z,11.33
2023-01-29T04:40:30.847Z,9.57
2023-01-29T04:43:08.862Z,7.90
2023-01-29T04:45:49.978Z,9.37
2023-01-29T04:48:26.558Z,7.70
2023-01-29T04:51:08.074Z,9.57
2023-01-29T04:53:49.722Z,8.97
2023-01-29T04:56:28.432Z,7.87
2023-01-29T04:59:05.679Z,8.25
2023-01-29T05:01:38.875Z,8.27
2023-01-29T05:04:14.359Z,11.57
2023-01-29T05:06:46.671Z,7.88
2023-01-29T05:09:19.058Z,9.60
2023-01-29T05:11:50.330Z,8.80
2023-01-29T05:14:22.125Z,10.80
2023-01-29T05:16:55.728Z,9.07
2023-01-29T05:19:24.775Z,9.67
2023-01-29T05:21:53.825Z,9.85
2023-01-29T05:24:27.692Z,8.90
2023-01-29T05:27:14.030Z,11.23
2023-01-29T05:29:47.829Z,9.43
2023-01-29T05:32:17.531Z,12.02
2023-01-29T05:34:46.827Z,9.07
2023-01-29T05:37:15.582Z,9.88
2023-01-29T05:39:46.046Z,9.15
2023-01-29T05:42:14.867Z,10.77
2023-01-29T05:44:44.066Z,9.55
2023-01-29T05:47:12.859Z,10.70
2023-01-29T05:49:41.935Z,10.25
2023-01-29T05:52:10.773Z,11.35
2023-01-29T05:54:39.872Z,10.68
2023-01-29T05:57:10.147Z,10.10
2023-01-29T05:59:39.260Z,11.27
2023-01-29T06:02:08.176Z,12.53
2023-01-29T06:04:37.531Z,9.63
2023-01-29T06:07:06.367Z,10.60
2023-01-29T06:09:35.425Z,10.53
2023-01-29T06:12:06.226Z,12.03
2023-01-29T06:14:36.667Z,13.27
2023-01-29T06:17:05.891Z,13.95
2023-01-29T06:19:35.002Z,13.10
2023-01-29T06:22:03.781Z,11.80
2023-01-29T06:24:33.775Z,12.10
2023-01-29T06:27:02.631Z,14.90
2023-01-29T06:29:31.757Z,13.83
2023-01-29T06:32:02.081Z,13.40
2023-01-29T06:34:31.250Z,12.53
2023-01-29T06:37:00.048Z,12.87
2023-01-29T06:39:29.202Z,14.13
2023-01-29T06:41:58.146Z,12.53
2023-01-29T06:44:27.562Z,13.30
2023-01-29T06:46:56.698Z,14.70
2023-01-29T06:49:27.138Z,14.10
2023-01-29T06:51:55.938Z,10.88
2023-01-29T06:54:25.202Z,13.05
2023-01-29T06:56:54.087Z,11.15
2023-01-29T06:59:23.349Z,11.90
2023-01-29T07:01:52.198Z,11.60
2023-01-29T07:04:21.604Z,15.57
2023-01-29T07:06:51.884Z,12.13
2023-01-29T07:09:21.098Z,11.70
2023-01-29T07:11:49.963Z,14.75
2023-01-29T07:14:19.234Z,12.27
2023-01-29T07:16:48.038Z,13.33
2023-01-29T07:19:17.373Z,11.27
2023-01-29T07:21:46.396Z,12.43
2023-01-29T07:24:17.320Z,15.17
2023-01-29T07:26:46.260Z,12.77
2023-01-29T07:29:15.383Z,9.68
2023-01-29T07:31:44.397Z,10.73
2023-01-29T07:34:13.617Z,11.27
2023-01-29T07:36:42.469Z,11.03
2023-01-29T07:39:11.624Z,12.13
2023-01-29T07:41:42.278Z,11.75
2023-01-29T07:44:18.200Z,11.68
2023-01-29T07:46:46.969Z,10.40
2023-01-29T07:49:16.318Z,12.50
2023-01-29T07:51:45.123Z,10.60
2023-01-29T07:54:14.189Z,10.10
2023-01-29T07:56:44.374Z,10.68
2023-01-29T07:59:13.432Z,10.98
2023-01-29T08:01:42.452Z,12.07
2023-01-29T08:04:11.663Z,9.87
2023-01-29T08:06:40.469Z,12.10
2023-01-29T08:09:09.726Z,12.10
2023-01-29T08:11:38.792Z,14.07
2023-01-29T08:14:09.731Z,13.18
2023-01-29T08:16:38.591Z,12.80
2023-01-29T08:19:07.685Z,12.23
2023-01-29T08:21:36.455Z,11.65
2023-01-29T08:24:06.346Z,13.13
2023-01-29T08:26:35.400Z,12.95
2023-01-29T08:29:04.767Z,13.70
2023-01-29T08:31:35.244Z,10.57
2023-01-29T08:34:04.347Z,14.30
2023-01-29T08:36:34.589Z,12.95
2023-01-29T08:39:03.731Z,11.38
2023-01-29T08:41:32.522Z,13.27
2023-01-29T08:44:04.333Z,13.20
2023-01-29T08:46:34.630Z,13.38
2023-01-29T08:49:03.910Z,12.75
2023-01-29T08:51:33.222Z,12.70
2023-01-29T08:54:02.346Z,11.10
2023-01-29T08:56:31.267Z,13.45
2023-01-29T08:59:00.681Z,14.20
2023-01-29T09:01:29.635Z,13.95
2023-01-29T09:04:00.241Z,13.85
2023-01-29T09:06:29.208Z,13.90
2023-01-29T09:08:58.463Z,14.73
2023-01-29T09:11:27.658Z,12.65
2023-01-29T09:13:56.756Z,11.70
2023-01-29T09:16:25.636Z,13.73
2023-01-29T09:18:55.336Z,11.80
2023-01-29T09:21:25.502Z,12.60
2023-01-29T09:23:54.565Z,11.20
2023-01-29T09:26:23.498Z,12.45
2023-01-29T09:28:52.645Z,12.85
2023-01-29T09:31:21.540Z,13.05
2023-01-29T09:33:50.746Z,14.00
2023-01-29T09:36:19.546Z,12.77
2023-01-29T09:38:49.994Z,12.93
2023-01-29T09:41:40.342Z,14.80
2023-01-29T09:44:22.220Z,15.75
2023-01-29T09:46:55.449Z,16.08
2023-01-29T09:49:31.610Z,13.60
2023-01-29T09:52:08.325Z,12.65
2023-01-29T09:54:55.914Z,12.82
2023-01-29T09:57:33.270Z,12.60
2023-01-29T10:00:02.384Z,14.27
2023-01-29T10:03:14.064Z,13.18
2023-01-29T10:06:06.264Z,13.30
2023-01-29T10:09:33.055Z,11.95
2023-01-29T10:12:25.943Z,11.57
2023-01-29T10:15:08.708Z,12.13
2023-01-29T10:18:02.280Z,13.32
2023-01-29T10:20:56.430Z,14.45
2023-01-29T10:23:30.204Z,13.73
2023-01-29T10:25:59.361Z,14.75
2023-01-29T10:28:38.518Z,15.38
2023-01-29T10:31:15.039Z,13.38
2023-01-29T10:34:02.081Z,14.15
2023-01-29T10:36:39.708Z,14.57
2023-01-29T10:39:19.442Z,12.77
2023-01-29T10:42:08.195Z,17.20
2023-01-29T10:45:00.936Z,14.85
2023-01-29T10:48:04.882Z,12.95
2023-01-29T10:50:50.477Z,14.70
2023-01-29T10:53:47.004Z,12.57
2023-01-29T10:56:38.527Z,17.60
2023-01-29T10:59:26.585Z,13.95
2023-01-29T11:02:03.327Z,13.13
2023-01-29T11:04:35.349Z,13.07
2023-01-29T11:07:05.485Z,15.02
2023-01-29T11:09:43.290Z,13.75
2023-01-29T11:12:16.659Z,13.35
2023-01-29T11:14:53.014Z,14.52
2023-01-29T11:17:26.234Z,15.88
2023-01-29T11:19:56.936Z,14.20
2023-01-29T11:22:28.367Z,14.27
2023-01-29T11:25:18.062Z,14.23
2023-01-29T11:27:50.548Z,15.70
2023-01-29T11:30:26.725Z,15.05
2023-01-29T11:33:09.907Z,15.57
2023-01-29T11:35:39.115Z,15.60
2023-01-29T11:38:19.759Z,15.32
2023-01-29T11:40:49.253Z,16.02
2023-01-29T11:43:29.278Z,12.45
2023-01-29T11:46:02.529Z,12.48
2023-01-29T11:48:45.400Z,12.95
2023-01-29T11:51:25.357Z,14.32
2023-01-29T11:53:57.866Z,12.90
2023-01-29T11:56:35.224Z,13.35
2023-01-29T11:59:05.677Z,12.05
2023-01-29T12:01:39.802Z,13.77
2023-01-29T12:04:21.952Z,15.07
2023-01-29T12:06:53.319Z,15.07
2023-01-29T12:09:27.315Z,14.25
2023-01-29T12:11:56.375Z,13.77
2023-01-29T12:14:35.276Z,15.07
2023-01-29T12:17:13.734Z,15.52
2023-01-29T12:19:52.368Z,14.10
2023-01-29T12:22:33.834Z,12.70
2023-01-29T12:25:12.818Z,18.35
2023-01-29T12:27:54.386Z,16.15
2023-01-29T12:30:32.941Z,15.68
2023-01-29T12:33:15.798Z,17.77
2023-01-29T12:35:54.918Z,16.38
2023-01-29T12:38:25.391Z,15.90
2023-01-29T12:41:05.223Z,13.60
2023-01-29T12:43:42.341Z,14.25
2023-01-29T12:46:22.882Z,15.25
2023-01-29T12:48:56.989Z,15.32
2023-01-29T12:51:38.902Z,15.52
2023-01-29T12:54:14.583Z,15.75
2023-01-29T12:56:49.848Z,17.40
2023-01-29T12:59:29.460Z,17.33
2023-01-29T13:02:03.799Z,16.08
2023-01-29T13:04:42.443Z,15.55
2023-01-29T13:07:19.986Z,18.02
2023-01-29T13:09:56.523Z,15.93
2023-01-29T13:12:27.417Z,17.02
2023-01-29T13:15:01.972Z,17.02
2023-01-29T13:17:38.841Z,18.92
2023-01-29T13:20:19.081Z,17.85
2023-01-29T13:22:54.115Z,15.63
2023-01-29T13:25:22.985Z,19.33
2023-01-29T13:27:52.533Z,18.75
2023-01-29T13:30:31.542Z,17.25
2023-01-29T13:33:12.824Z,18.80
2023-01-29T13:35:47.144Z,14.93
2023-01-29T13:38:28.206Z,18.23
2023-01-29T13:41:02.986Z,16.45
2023-01-29T13:43:38.517Z,19.30
2023-01-29T13:46:14.085Z,19.38
2023-01-29T13:48:46.762Z,22.35
2023-01-29T13:51:21.919Z,16.80
2023-01-29T13:54:01.839Z,20.58
2023-01-29T13:56:46.449Z,22.23
2023-01-29T13:59:46.350Z,19.80
2023-01-29T14:02:26.423Z,19.95
2023-01-29T14:05:40.083Z,18.85
2023-01-29T14:08:44.292Z,20.02
2023-01-29T14:11:37.687Z,17.20
2023-01-29T14:15:04.247Z,21.47
2023-01-29T14:17:33.767Z,20.90
2023-01-29T14:20:17.599Z,20.60
2023-01-29T14:22:57.713Z,20.35
2023-01-29T14:25:33.107Z,22.13
2023-01-29T14:28:05.937Z,23.47
2023-01-29T14:30:38.081Z,21.45
2023-01-29T14:33:25.186Z,20.40
2023-01-29T14:35:57.180Z,21.83
2023-01-29T14:38:30.207Z,22.20
2023-01-29T14:41:16.899Z,20.50
2023-01-29T14:43:45.987Z,17.55
2023-01-29T14:46:45.805Z,17.70
2023-01-29T14:49:52.316Z,17.95
2023-01-29T14:52:28.121Z,17.17
2023-01-29T14:55:03.887Z,19.23
2023-01-29T14:57:34.163Z,18.33
2023-01-29T15:00:07.455Z,16.40
2023-01-29T15:02:44.219Z,17.27
2023-01-29T15:05:21.528Z,18.05
2023-01-29T15:07:58.427Z,19.52
2023-01-29T15:10:40.034Z,19.83
2023-01-29T15:13:21.303Z,19.05
2023-01-29T15:15:58.153Z,21.60
2023-01-29T15:18:39.847Z,18.02
2023-01-29T15:21:14.449Z,20.55
2023-01-29T15:23:44.313Z,19.25
2023-01-29T15:26:20.694Z,19.27
2023-01-29T15:29:03.611Z,19.85
2023-01-29T15:31:36.140Z,19.75
2023-01-29T15:34:08.933Z,18.67
2023-01-29T15:36:40.057Z,18.73
2023-01-29T15:39:18.807Z,19.90
2023-01-29T15:41:48.848Z,20.47
2023-01-29T15:44:20.651Z,20.25
2023-01-29T15:46:54.746Z,20.27
2023-01-29T15:49:33.100Z,20.75
2023-01-29T15:52:07.185Z,22.02
2023-01-29T15:54:37.328Z,23.30
2023-01-29T15:57:07.924Z,22.67
2023-01-29T15:59:51.705Z,24.33
2023-01-29T16:02:36.463Z,23.17
2023-01-29T16:05:12.867Z,25.50
2023-01-29T16:07:43.673Z,22.38
2023-01-29T16:10:21.295Z,23.75
2023-01-29T16:12:53.271Z,25.63
2023-01-29T16:15:37.135Z,23.88
2023-01-29T16:18:23.025Z,22.80
2023-01-29T16:20:56.690Z,27.20
2023-01-29T16:23:30.635Z,24.88
2023-01-29T16:26:07.110Z,25.50
2023-01-29T16:28:42.586Z,25.38
2023-01-29T16:31:14.087Z,23.00
2023-01-29T16:33:45.607Z,24.00
2023-01-29T16:36:21.190Z,24.90
2023-01-29T16:38:56.729Z,24.77
2023-01-29T16:41:35.956Z,22.60
2023-01-29T16:44:32.802Z,28.52
2023-01-29T16:47:13.938Z,25.92
2023-01-29T16:49:51.373Z,25.38
2023-01-29T16:52:27.220Z,29.13
2023-01-29T16:55:15.098Z,27.77
2023-01-29T16:57:51.061Z,29.83
2023-01-29T17:00:26.016Z,29.67
2023-01-29T17:03:00.551Z,25.95
2023-01-29T17:05:32.855Z,27.65
2023-01-29T17:08:05.792Z,27.45
2023-01-29T17:10:36.170Z,27.88
2023-01-29T17:13:08.483Z,27.10
2023-01-29T17:15:46.973Z,25.30
2023-01-29T17:18:21.494Z,30.63
2023-01-29T17:20:53.048Z,31.58
2023-01-29T17:23:24.209Z,27.73
2023-01-29T17:25:53.383Z,28.52
2023-01-29T17:28:22.241Z,30.08
2023-01-29T17:31:05.216Z,31.33
2023-01-29T17:33:36.691Z,29.85
2023-01-29T17:36:06.533Z,30.80
2023-01-29T17:38:36.956Z,29.58
2023-01-29T17:41:12.527Z,31.45
2023-01-29T17:43:41.472Z,29.92
2023-01-29T17:46:16.585Z,34.10
2023-01-29T17:48:46.055Z,27.67
2023-01-29T17:51:17.750Z,34.58
2023-01-29T17:53:47.985Z,31.33
2023-01-29T17:56:19.172Z,37.27
2023-01-29T17:58:48.090Z,36.03
2023-01-29T18:01:17.335Z,33.85
2023-01-29T18:03:46.250Z,30.55
2023-01-29T18:06:28.497Z,33.22
2023-01-29T18:08:58.775Z,27.45
2023-01-29T18:11:28.510Z,31.63
2023-01-29T18:13:57.976Z,28.60
2023-01-29T18:16:28.679Z,30.73
2023-01-29T18:18:57.693Z,30.40
2023-01-29T18:21:26.865Z,33.20
2023-01-29T18:23:55.660Z,45.53
2023-01-29T18:26:26.132Z,51.47
2023-01-29T18:28:55.002Z,40.15
2023-01-29T18:31:24.114Z,31.65
2023-01-29T18:33:52.946Z,31.63
2023-01-29T18:36:22.146Z,32.03
2023-01-29T18:38:51.110Z,30.08
2023-01-29T18:41:20.357Z,31.95
2023-01-29T18:43:52.701Z,28.90
2023-01-29T18:46:24.331Z,30.98
2023-01-29T18:48:53.269Z,30.43
2023-01-29T18:51:22.373Z,31.15
2023-01-29T18:53:52.083Z,28.83
2023-01-29T18:56:21.293Z,30.48
2023-01-29T18:58:57.037Z,33.63
2023-01-29T19:01:27.304Z,32.42
2023-01-29T19:03:56.226Z,30.05
2023-01-29T19:06:25.323Z,29.30
2023-01-29T19:08:54.219Z,32.20
2023-01-29T19:11:23.409Z,34.97
2023-01-29T19:13:54.901Z,31.20
2023-01-29T19:16:24.503Z,35.97
2023-01-29T19:18:56.093Z,32.90
2023-01-29T19:21:25.316Z,34.75
2023-01-29T19:23:54.240Z,31.05
2023-01-29T19:26:24.275Z,31.38
2023-01-29T19:28:54.538Z,36.92
2023-01-29T19:31:23.663Z,29.38
2023-01-29T19:33:52.486Z,33.67
2023-01-29T19:36:21.703Z,32.92
2023-01-29T19:38:50.554Z,32.53
2023-01-29T19:41:19.845Z,29.63
2023-01-29T19:43:48.760Z,31.23
2023-01-29T19:46:19.305Z,31.48
2023-01-29T19:48:48.521Z,30.08
2023-01-29T19:51:17.666Z,30.67
2023-01-29T19:53:46.486Z,28.02
2023-01-29T19:56:18.410Z,32.20
2023-01-29T19:58:48.243Z,30.10
2023-01-29T20:01:21.721Z,32.75
2023-01-29T20:03:51.266Z,31.83
2023-01-29T20:06:24.599Z,31.42
2023-01-29T20:08:53.543Z,32.10
2023-01-29T20:11:25.146Z,33.08
2023-01-29T20:13:54.963Z,32.25
2023-01-29T20:16:27.723Z,34.97
2023-01-29T20:19:13.987Z,34.25
2023-01-29T20:21:48.849Z,31.95
2023-01-29T20:24:18.012Z,28.77
2023-01-29T20:26:47.306Z,30.98
2023-01-29T20:29:16.428Z,31.17
2023-01-29T20:31:47.046Z,31.58
2023-01-29T20:34:15.946Z,30.48
2023-01-29T20:36:44.981Z,30.52
2023-01-29T20:39:13.849Z,30.73
2023-01-29T20:41:42.912Z,27.63
2023-01-29T20:44:11.743Z,30.33
2023-01-29T20:46:40.813Z,33.63
2023-01-29T20:49:12.363Z,27.05
2023-01-29T20:51:41.522Z,30.67
2023-01-29T20:54:12.595Z,29.45
2023-01-29T20:56:43.354Z,30.05
2023-01-29T20:59:15.922Z,32.10
2023-01-29T21:01:45.849Z,29.17
2023-01-29T21:04:16.077Z,27.63
2023-01-29T21:06:45.147Z,28.65
2023-01-29T21:09:13.947Z,31.70
2023-01-29T21:11:44.986Z,27.23
2023-01-29T21:14:14.202Z,31.67
2023-01-29T21:16:43.424Z,30.60
2023-01-29T21:19:15.986Z,28.05
2023-01-29T21:21:45.244Z,30.70
2023-01-29T21:24:15.200Z,31.05
2023-01-29T21:26:44.407Z,30.48
2023-01-29T21:29:13.455Z,27.50
2023-01-29T21:31:44.332Z,28.05
2023-01-29T21:34:13.183Z,30.13
2023-01-29T21:36:43.673Z,28.92
2023-01-29T21:39:20.654Z,29.08
2023-01-29T21:42:10.105Z,28.42
2023-01-29T21:44:39.415Z,27.67
2023-01-29T21:47:13.283Z,30.65
2023-01-29T21:49:43.594Z,30.92
2023-01-29T21:52:15.467Z,29.52
2023-01-29T21:54:48.973Z,27.60
2023-01-29T21:57:18.634Z,28.48
2023-01-29T21:59:51.474Z,30.17
2023-01-29T22:02:26.287Z,29.75
2023-01-29T22:05:08.774Z,31.13
2023-01-29T22:07:47.879Z,28.95
2023-01-29T22:10:18.729Z,29.10
2023-01-29T22:12:48.843Z,29.60
2023-01-29T22:15:18.085Z,26.58
2023-01-29T22:17:47.180Z,29.40
2023-01-29T22:20:16.630Z,29.08
2023-01-29T22:22:47.457Z,31.90
2023-01-29T22:25:20.083Z,29.23
2023-01-29T22:27:49.311Z,30.70
2023-01-29T22:30:19.548Z,30.70
2023-01-29T22:32:48.764Z,29.42
2023-01-29T22:35:18.094Z,30.80
2023-01-29T22:37:48.601Z,28.58
2023-01-29T22:40:17.990Z,29.52
2023-01-29T22:42:47.396Z,29.73
2023-01-29T22:45:16.604Z,28.13
2023-01-29T22:47:45.682Z,27.67
2023-01-29T22:50:15.343Z,26.65
2023-01-29T22:52:53.582Z,28.13
2023-01-29T22:55:23.866Z,29.88
2023-01-29T22:57:53.505Z,28.75
2023-01-29T23:00:22.905Z,30.00
2023-01-29T23:02:52.573Z,27.60
2023-01-29T23:05:21.413Z,26.38
2023-01-29T23:07:50.519Z,24.88
2023-01-29T23:10:19.742Z,28.92
2023-01-29T23:12:50.331Z,28.95
2023-01-29T23:15:19.140Z,26.63
2023-01-29T23:17:48.543Z,23.92
2023-01-29T23:20:20.627Z,28.52
2023-01-29T23:22:50.431Z,27.20
2023-01-29T23:25:19.570Z,25.08
2023-01-29T23:27:49.121Z,28.23
2023-01-29T23:30:18.829Z,26.05
2023-01-29T23:32:48.343Z,24.67
2023-01-29T23:35:17.381Z,24.77
2023-01-29T23:37:46.510Z,24.30
2023-01-29T23:40:16.338Z,23.00
2023-01-29T23:42:45.841Z,24.60
2023-01-29T23:45:16.198Z,23.08
2023-01-29T23:47:45.322Z,24.20
2023-01-29T23:50:14.173Z,20.85
2023-01-29T23:52:43.250Z,22.85
2023-01-29T23:55:12.029Z,20.30
2023-01-29T23:57:41.153Z,21.90
